This is the latest recevied weather packets stored in our database for station/object WB4ROX. If no packets are shown the sender has not sent any weather packets the latest 1 day(s).
| Time | Temp. | Humidity | Pressure | Rain* | Wind** | Luminosity | Snow |
|---|---|---|---|---|---|---|---|
| 1778002310 | 17.78° C | 41% | 1019.1 hPa | 0 mm | 0.89 m/s, 104° | 673 W/m² | - |
| 1778002007 | 17.78° C | 43% | 1019.1 hPa | 0 mm | 0.45 m/s, 25° | 611 W/m² | - |
| 1778001704 | 17.22° C | 43% | 1019 hPa | 0 mm | 3.13 m/s, 283° | 812 W/m² | - |
| 1778001403 | 17.22° C | 44% | 1018.9 hPa | 0 mm | 0.45 m/s, 131° | 842 W/m² | - |
| 1778001101 | 17.78° C | 42% | 1019 hPa | 0 mm | 0.89 m/s, 121° | 611 W/m² | - |
| 1778000798 | 17.22° C | 41% | 1019.1 hPa | 0 mm | 0.89 m/s, 33° | 702 W/m² | - |
| 1778000495 | 17.78° C | 39% | 1018.8 hPa | 0 mm | 0.45 m/s, 101° | 475 W/m² | - |
| 1778000195 | 17.78° C | 40% | 1019.1 hPa | 0 mm | 0.45 m/s, 107° | 677 W/m² | - |
| 1777999891 | 18.33° C | 38% | 1019 hPa | 0 mm | 0.89 m/s, 271° | 699 W/m² | - |
| 1777999586 | 18.33° C | 32% | 1019 hPa | 0 mm | 1.34 m/s, 121° | 610 W/m² | - |
| 1777999284 | 17.78° C | 30% | 1019.1 hPa | 0 mm | 0.45 m/s, 62° | 760 W/m² | - |
| 1777998982 | 17.78° C | 28% | 1019.3 hPa | 0 mm | 0.89 m/s, 283° | 779 W/m² | - |
| 1777998680 | 17.22° C | 30% | 1019.3 hPa | 0 mm | 0.89 m/s, 348° | 788 W/m² | - |
| 1777998377 | 17.78° C | 29% | 1019.4 hPa | 0 mm | 1.34 m/s, 131° | 835 W/m² | - |
| 1777998075 | 17.22° C | 29% | 1019.3 hPa | 0 mm | 0.45 m/s, 95° | 792 W/m² | - |
| 1777997772 | 17.78° C | 28% | 1019.2 hPa | 0 mm | 0.89 m/s, 115° | 743 W/m² | - |
| 1777997469 | 17.22° C | 30% | 1019.4 hPa | 0 mm | 0.45 m/s, 112° | 841 W/m² | - |
| 1777997166 | 17.22° C | 29% | 1019.4 hPa | 0 mm | 0.89 m/s, 96° | 775 W/m² | - |
| 1777996864 | 16.67° C | 30% | 1019.7 hPa | 0 mm | 1.34 m/s, 292° | 665 W/m² | - |
| 1777996560 | 16.67° C | 31% | 1019.8 hPa | 0 mm | 0 m/s | 634 W/m² | - |
| 1777996256 | 16.67° C | 31% | 1019.6 hPa | 0 mm | 1.34 m/s, 281° | 615 W/m² | - |
| 1777995952 | 16.67° C | 29% | 1019.8 hPa | 0 mm | 0.45 m/s, 93° | 668 W/m² | - |
| 1777995649 | 16.67° C | 30% | 1019.8 hPa | 0 mm | 0.45 m/s, 96° | 640 W/m² | - |
| 1777995346 | 16.67° C | 30% | 1019.8 hPa | 0 mm | 0 m/s | 631 W/m² | - |
| 1777995043 | 16.11° C | 30% | 1019.7 hPa | 0 mm | 0.45 m/s, 102° | 663 W/m² | - |
* Rain latest hour (hover to see other rain measurements)
** Current wind speed in m/s (hover to see current wind gust speed)